createdAt,value
2023-10-31T00:00:18.811Z,12.58
2023-10-31T00:01:22.033Z,12.28
2023-10-31T00:02:24.696Z,12.65
2023-10-31T00:03:27.638Z,13.52
2023-10-31T00:04:30.320Z,13.72
2023-10-31T00:05:32.987Z,12.83
2023-10-31T00:06:36.655Z,12.68
2023-10-31T00:07:39.294Z,12.87
2023-10-31T00:08:41.938Z,13.40
2023-10-31T00:09:44.517Z,11.78
2023-10-31T00:10:47.569Z,12.73
2023-10-31T00:11:50.244Z,12.43
2023-10-31T00:12:52.839Z,12.08
2023-10-31T00:13:55.727Z,11.90
2023-10-31T00:14:58.404Z,13.07
2023-10-31T00:16:01.147Z,12.08
2023-10-31T00:17:03.904Z,11.95
2023-10-31T00:18:06.527Z,11.70
2023-10-31T00:19:09.199Z,12.38
2023-10-31T00:20:11.880Z,11.97
2023-10-31T00:21:16.556Z,11.95
2023-10-31T00:22:20.883Z,12.15
2023-10-31T00:23:23.925Z,12.08
2023-10-31T00:24:27.221Z,12.35
2023-10-31T00:25:29.861Z,12.03
2023-10-31T00:26:32.461Z,12.23
2023-10-31T00:27:35.104Z,12.35
2023-10-31T00:28:37.790Z,12.78
2023-10-31T00:29:40.433Z,12.70
2023-10-31T00:30:43.080Z,11.97
2023-10-31T00:31:45.914Z,12.65
2023-10-31T00:32:48.605Z,12.25
2023-10-31T00:33:51.291Z,12.57
2023-10-31T00:34:54.024Z,12.57
2023-10-31T00:35:56.896Z,12.53
2023-10-31T00:36:59.609Z,12.70
2023-10-31T00:38:02.296Z,11.53
2023-10-31T00:39:04.926Z,12.70
2023-10-31T00:40:13.648Z,11.97
2023-10-31T00:41:16.249Z,12.15
2023-10-31T00:42:18.894Z,13.40
2023-10-31T00:43:21.527Z,13.07
2023-10-31T00:44:24.138Z,12.52
2023-10-31T00:45:26.767Z,12.37
2023-10-31T00:46:29.477Z,12.90
2023-10-31T00:47:32.136Z,13.08
2023-10-31T00:48:37.574Z,13.22
2023-10-31T00:49:40.460Z,13.20
2023-10-31T00:50:44.680Z,12.35
2023-10-31T00:51:47.278Z,12.87
2023-10-31T00:52:49.969Z,12.93
2023-10-31T00:53:52.616Z,13.35
2023-10-31T00:54:55.277Z,13.32
2023-10-31T00:55:57.908Z,13.42
2023-10-31T00:57:00.559Z,13.12
2023-10-31T00:58:03.232Z,13.92
2023-10-31T00:59:05.871Z,13.42
2023-10-31T01:00:10.991Z,13.20
2023-10-31T01:01:13.594Z,12.72
2023-10-31T01:02:16.479Z,13.27
2023-10-31T01:03:19.191Z,13.15
2023-10-31T01:04:22.326Z,12.50
2023-10-31T01:05:24.970Z,13.90
2023-10-31T01:06:27.597Z,14.28
2023-10-31T01:07:30.397Z,13.85
2023-10-31T01:08:33.067Z,12.95
2023-10-31T01:09:35.933Z,13.97
2023-10-31T01:10:38.582Z,13.93
2023-10-31T01:11:41.199Z,13.83
2023-10-31T01:12:43.781Z,14.00
2023-10-31T01:13:46.417Z,13.62
2023-10-31T01:14:49.067Z,13.37
2023-10-31T01:15:51.739Z,13.00
2023-10-31T01:16:54.394Z,12.53
2023-10-31T01:17:57.066Z,13.53
2023-10-31T01:18:59.753Z,13.53
2023-10-31T01:20:02.554Z,12.17
2023-10-31T01:21:05.253Z,13.42
2023-10-31T01:22:08.709Z,12.62
2023-10-31T01:23:11.383Z,12.57
2023-10-31T01:24:14.071Z,13.05
2023-10-31T01:25:16.709Z,13.32
2023-10-31T01:26:19.291Z,13.52
2023-10-31T01:27:21.909Z,13.12
2023-10-31T01:28:24.547Z,13.47
2023-10-31T01:29:27.205Z,12.95
2023-10-31T01:30:29.824Z,12.48
2023-10-31T01:31:37.565Z,13.93
2023-10-31T01:32:42.286Z,12.63
2023-10-31T01:33:45.158Z,12.95
2023-10-31T01:34:47.997Z,12.93
2023-10-31T01:35:50.633Z,13.08
2023-10-31T01:36:53.359Z,13.43
2023-10-31T01:37:55.956Z,13.28
2023-10-31T01:38:58.547Z,12.77
2023-10-31T01:40:01.278Z,12.93
2023-10-31T01:41:04.366Z,12.52
2023-10-31T01:42:07.203Z,12.63
2023-10-31T01:43:09.973Z,12.37
2023-10-31T01:44:12.637Z,12.32
2023-10-31T01:45:15.318Z,11.53
2023-10-31T01:46:17.978Z,11.60
2023-10-31T01:47:20.566Z,12.02
2023-10-31T01:48:24.900Z,12.47
2023-10-31T01:49:27.559Z,12.37
2023-10-31T01:50:30.266Z,12.38
2023-10-31T01:51:32.915Z,12.50
2023-10-31T01:52:37.169Z,11.57
2023-10-31T01:53:39.887Z,11.03
2023-10-31T01:54:42.543Z,11.65
2023-10-31T01:55:47.208Z,12.37
2023-10-31T01:56:52.146Z,11.80
2023-10-31T01:57:54.893Z,11.47
2023-10-31T01:58:57.561Z,11.97
2023-10-31T02:01:22.581Z,11.20
2023-10-31T02:02:27.065Z,11.50
2023-10-31T02:03:29.852Z,10.82
2023-10-31T02:04:32.611Z,11.57
2023-10-31T02:05:35.764Z,11.23
2023-10-31T02:06:38.413Z,11.18
2023-10-31T02:07:41.050Z,11.13
2023-10-31T02:08:43.689Z,11.07
2023-10-31T02:09:46.320Z,11.07
2023-10-31T02:10:48.979Z,11.28
2023-10-31T02:11:51.947Z,11.38
2023-10-31T02:12:54.549Z,11.27
2023-10-31T02:13:57.178Z,11.35
2023-10-31T02:14:59.769Z,11.42
2023-10-31T02:16:02.985Z,11.63
2023-10-31T02:17:05.642Z,11.25
2023-10-31T02:18:09.348Z,10.32
2023-10-31T02:19:15.928Z,10.57
2023-10-31T02:20:18.599Z,10.73
2023-10-31T02:21:21.923Z,10.68
2023-10-31T02:22:24.765Z,11.35
2023-10-31T02:23:27.393Z,11.02
2023-10-31T02:24:30.463Z,11.27
2023-10-31T02:25:33.148Z,11.37
2023-10-31T02:26:36.368Z,10.40
2023-10-31T02:27:39.020Z,11.20
2023-10-31T02:28:42.521Z,10.52
2023-10-31T02:29:45.216Z,10.27
2023-10-31T02:30:47.879Z,10.40
2023-10-31T02:31:50.566Z,10.02
2023-10-31T02:32:53.377Z,10.28
2023-10-31T02:33:56.087Z,10.40
2023-10-31T02:34:58.709Z,10.28
2023-10-31T02:36:01.398Z,9.65
2023-10-31T02:37:04.168Z,9.20
2023-10-31T02:38:06.844Z,9.42
2023-10-31T02:39:09.453Z,8.72
2023-10-31T02:40:12.544Z,9.22
2023-10-31T02:41:15.157Z,9.12
2023-10-31T02:42:17.744Z,9.18
2023-10-31T02:43:20.396Z,9.72
2023-10-31T02:44:23.512Z,9.38
2023-10-31T02:45:26.726Z,9.10
2023-10-31T02:46:29.367Z,8.67
2023-10-31T02:47:32.056Z,8.55
2023-10-31T02:48:40.708Z,8.40
2023-10-31T02:49:43.350Z,8.55
2023-10-31T02:50:46.167Z,9.28
2023-10-31T02:51:48.870Z,8.75
2023-10-31T02:52:51.478Z,8.12
2023-10-31T02:53:54.078Z,8.62
2023-10-31T02:54:56.709Z,8.62
2023-10-31T02:55:59.293Z,8.05
2023-10-31T02:57:01.937Z,8.37
2023-10-31T02:58:04.558Z,8.60
2023-10-31T02:59:07.236Z,9.03
2023-10-31T03:00:10.213Z,7.85
2023-10-31T03:01:12.991Z,7.97
2023-10-31T03:02:15.755Z,7.40
2023-10-31T03:03:18.446Z,8.08
2023-10-31T03:04:21.058Z,7.57
2023-10-31T03:05:23.720Z,7.87
2023-10-31T03:06:26.353Z,8.18
2023-10-31T03:07:28.943Z,7.47
2023-10-31T03:08:31.551Z,7.17
2023-10-31T03:09:34.157Z,7.55
2023-10-31T03:10:36.827Z,7.60
2023-10-31T03:11:39.515Z,8.00
2023-10-31T03:12:42.462Z,8.05
2023-10-31T03:13:45.101Z,7.28
2023-10-31T03:14:47.759Z,7.28
2023-10-31T03:15:50.354Z,7.12
2023-10-31T03:16:53.073Z,7.42
2023-10-31T03:17:55.749Z,7.58
2023-10-31T03:18:58.347Z,6.97
2023-10-31T03:20:00.983Z,7.05
2023-10-31T03:21:03.832Z,6.90
2023-10-31T03:22:07.339Z,6.88
2023-10-31T03:23:10.036Z,6.92
2023-10-31T03:24:12.644Z,7.12
2023-10-31T03:25:15.277Z,6.93
2023-10-31T03:26:18.330Z,7.27
2023-10-31T03:27:20.967Z,6.98
2023-10-31T03:28:26.455Z,7.50
2023-10-31T03:29:29.215Z,7.10
2023-10-31T03:30:31.889Z,6.92
2023-10-31T03:31:34.478Z,6.63
2023-10-31T03:32:37.107Z,7.15
2023-10-31T03:33:40.071Z,6.77
2023-10-31T03:34:42.866Z,6.38
2023-10-31T03:35:45.902Z,6.63
2023-10-31T03:36:48.677Z,6.33
2023-10-31T03:37:51.337Z,6.55
2023-10-31T03:38:54.017Z,6.17
2023-10-31T03:39:56.647Z,5.90
2023-10-31T03:40:59.296Z,6.37
2023-10-31T03:42:01.952Z,6.47
2023-10-31T03:43:04.629Z,6.18
2023-10-31T03:44:07.293Z,6.60
2023-10-31T03:45:30.705Z,6.50
2023-10-31T03:46:54.130Z,5.75
2023-10-31T03:47:56.800Z,6.17
2023-10-31T03:48:59.392Z,5.90
2023-10-31T03:50:02.041Z,5.67
2023-10-31T03:51:04.707Z,5.78
2023-10-31T03:52:08.166Z,6.35
2023-10-31T03:53:10.955Z,5.77
2023-10-31T03:54:13.551Z,5.87
2023-10-31T03:55:16.243Z,5.77
2023-10-31T03:56:18.861Z,6.52
2023-10-31T03:57:21.515Z,5.50
2023-10-31T03:58:25.042Z,5.85
2023-10-31T03:59:27.626Z,5.73
2023-10-31T04:00:30.236Z,5.83
2023-10-31T04:01:32.854Z,5.80
2023-10-31T04:02:35.546Z,5.83
2023-10-31T04:03:38.327Z,5.58
2023-10-31T04:04:41.063Z,6.10
2023-10-31T04:05:43.733Z,5.98
2023-10-31T04:06:46.318Z,5.83
2023-10-31T04:07:49.028Z,5.82
2023-10-31T04:08:51.694Z,6.03
2023-10-31T04:09:54.323Z,5.85
2023-10-31T04:10:56.943Z,5.93
2023-10-31T04:11:59.598Z,5.65
2023-10-31T04:13:02.371Z,5.40
2023-10-31T04:14:05.537Z,6.03
2023-10-31T04:15:09.580Z,5.82
2023-10-31T04:16:12.276Z,5.35
2023-10-31T04:17:14.989Z,5.63
2023-10-31T04:18:18.184Z,5.40
2023-10-31T04:19:20.839Z,5.75
2023-10-31T04:20:23.527Z,6.02
2023-10-31T04:21:26.145Z,5.27
2023-10-31T04:22:28.719Z,5.77
2023-10-31T04:23:31.329Z,5.72
2023-10-31T04:24:33.938Z,5.85
2023-10-31T04:25:36.560Z,5.82
2023-10-31T04:26:41.524Z,5.15
2023-10-31T04:27:44.107Z,5.42
2023-10-31T04:28:46.771Z,5.55
2023-10-31T04:29:49.521Z,5.68
2023-10-31T04:30:52.236Z,5.60
2023-10-31T04:31:55.013Z,4.73
2023-10-31T04:32:57.666Z,5.17
2023-10-31T04:34:00.349Z,5.63
2023-10-31T04:35:03.077Z,5.25
2023-10-31T04:36:06.025Z,5.28
2023-10-31T04:37:08.653Z,5.17
2023-10-31T04:38:11.272Z,5.15
2023-10-31T04:39:13.907Z,5.08
2023-10-31T04:40:16.585Z,4.98
2023-10-31T04:41:19.169Z,4.60
2023-10-31T04:42:21.866Z,5.27
2023-10-31T04:43:24.472Z,5.32
2023-10-31T04:44:27.435Z,4.95
2023-10-31T04:45:30.222Z,4.72
2023-10-31T04:46:32.886Z,4.67
2023-10-31T04:47:35.759Z,4.40
2023-10-31T04:48:38.590Z,4.67
2023-10-31T04:49:41.264Z,4.72
2023-10-31T04:50:43.874Z,4.57
2023-10-31T04:51:46.490Z,4.33
2023-10-31T04:52:49.142Z,4.35
2023-10-31T04:53:51.764Z,4.00
2023-10-31T04:54:54.905Z,4.22
2023-10-31T04:55:57.590Z,4.07
2023-10-31T04:57:00.241Z,4.30
2023-10-31T04:58:02.828Z,3.85
2023-10-31T04:59:05.466Z,3.85
2023-10-31T05:00:09.678Z,4.10
2023-10-31T05:01:15.534Z,3.87
2023-10-31T05:02:18.202Z,4.15
2023-10-31T05:03:20.852Z,3.93
2023-10-31T05:04:23.608Z,4.07
2023-10-31T05:05:26.451Z,3.97
2023-10-31T05:06:29.069Z,3.73
2023-10-31T05:07:33.476Z,4.40
2023-10-31T05:08:36.688Z,4.17
2023-10-31T05:09:39.723Z,3.95
2023-10-31T05:10:42.474Z,3.97
2023-10-31T05:11:45.194Z,3.78
2023-10-31T05:12:47.763Z,4.05
2023-10-31T05:13:50.322Z,4.03
2023-10-31T05:14:52.940Z,4.15
2023-10-31T05:15:55.620Z,4.40
2023-10-31T05:16:58.206Z,4.40
2023-10-31T05:18:00.891Z,4.40
2023-10-31T05:19:05.920Z,4.47
2023-10-31T05:20:10.179Z,4.18
2023-10-31T05:21:12.955Z,4.12
2023-10-31T05:22:15.570Z,3.95
2023-10-31T05:23:18.221Z,4.08
2023-10-31T05:24:20.811Z,4.50
2023-10-31T05:25:23.377Z,4.30
2023-10-31T05:26:26.039Z,4.25
2023-10-31T05:27:30.117Z,4.22
2023-10-31T05:28:33.888Z,4.00
2023-10-31T05:29:37.271Z,4.60
2023-10-31T05:30:39.845Z,4.02
2023-10-31T05:31:43.003Z,4.35
2023-10-31T05:32:45.685Z,4.52
2023-10-31T05:33:48.351Z,4.32
2023-10-31T05:34:51.020Z,4.50
2023-10-31T05:35:53.630Z,4.58
2023-10-31T05:36:56.301Z,4.60
2023-10-31T05:37:58.939Z,4.28
2023-10-31T05:39:01.567Z,4.47
2023-10-31T05:40:04.450Z,4.60
2023-10-31T05:41:09.497Z,4.32
2023-10-31T05:42:12.131Z,4.57
2023-10-31T05:43:14.745Z,4.25
2023-10-31T05:44:17.385Z,4.68
2023-10-31T05:45:20.213Z,4.08
2023-10-31T05:46:22.967Z,4.08
2023-10-31T05:47:25.709Z,4.45
2023-10-31T05:48:28.339Z,4.22
2023-10-31T05:49:31.487Z,4.18
2023-10-31T05:50:34.115Z,4.28
2023-10-31T05:51:37.045Z,4.15
2023-10-31T05:52:39.744Z,4.33
2023-10-31T05:53:43.327Z,4.33
2023-10-31T05:54:45.953Z,4.53
2023-10-31T05:55:48.661Z,3.93
2023-10-31T05:56:51.307Z,4.42
2023-10-31T05:57:53.914Z,4.22
2023-10-31T05:58:56.747Z,4.45
2023-10-31T05:59:59.375Z,4.15
2023-10-31T06:01:02.056Z,4.15
2023-10-31T06:02:04.978Z,4.20
2023-10-31T06:03:08.263Z,4.40
2023-10-31T06:04:10.942Z,4.32
2023-10-31T06:05:13.582Z,4.28
2023-10-31T06:06:16.252Z,4.30
2023-10-31T06:07:18.866Z,4.72
2023-10-31T06:08:21.540Z,4.77
2023-10-31T06:09:24.150Z,4.52
2023-10-31T06:10:26.751Z,4.55
2023-10-31T06:11:29.398Z,4.67
2023-10-31T06:12:32.156Z,4.75
2023-10-31T06:13:35.128Z,4.53
2023-10-31T06:14:38.526Z,4.43
2023-10-31T06:15:41.138Z,4.47
2023-10-31T06:16:45.158Z,4.45
2023-10-31T06:17:47.879Z,4.37
2023-10-31T06:18:50.605Z,4.45
2023-10-31T06:19:53.266Z,4.30
2023-10-31T06:20:55.876Z,3.85
2023-10-31T06:21:58.446Z,4.50
2023-10-31T06:23:01.083Z,4.48
2023-10-31T06:24:04.992Z,4.30
2023-10-31T06:25:07.823Z,3.98
2023-10-31T06:26:11.015Z,4.38
2023-10-31T06:27:13.692Z,4.22
2023-10-31T06:28:16.545Z,5.13
2023-10-31T06:29:37.579Z,5.40
2023-10-31T06:30:41.852Z,5.20
2023-10-31T06:31:44.570Z,4.53
2023-10-31T06:32:47.292Z,4.53
2023-10-31T06:33:49.874Z,4.58
2023-10-31T06:34:52.523Z,4.63
2023-10-31T06:35:55.161Z,4.48
2023-10-31T06:36:57.793Z,4.62
2023-10-31T06:38:00.915Z,4.70
2023-10-31T06:39:03.661Z,4.30
2023-10-31T06:40:07.033Z,5.02
2023-10-31T06:41:09.636Z,5.05
2023-10-31T06:42:12.243Z,4.58
2023-10-31T06:43:14.820Z,4.50
2023-10-31T06:44:17.456Z,4.23
2023-10-31T06:45:20.384Z,4.58
2023-10-31T06:46:22.987Z,4.18
2023-10-31T06:47:25.677Z,4.68
2023-10-31T06:48:28.341Z,4.25
2023-10-31T06:49:30.965Z,4.47
2023-10-31T06:50:34.318Z,4.57
2023-10-31T06:51:36.925Z,5.03
2023-10-31T06:52:39.766Z,4.32
2023-10-31T06:53:42.398Z,4.52
2023-10-31T06:54:45.140Z,4.77
2023-10-31T06:55:49.276Z,4.72
2023-10-31T06:56:52.472Z,4.82
2023-10-31T06:57:55.133Z,4.08
2023-10-31T06:58:57.761Z,4.38
2023-10-31T07:00:00.478Z,4.53
2023-10-31T07:01:03.719Z,4.23
2023-10-31T07:02:06.519Z,4.22
2023-10-31T07:03:10.605Z,4.35
2023-10-31T07:04:13.417Z,4.55
2023-10-31T07:05:16.976Z,4.10
2023-10-31T07:06:19.602Z,4.20
2023-10-31T07:07:22.172Z,4.18
2023-10-31T07:08:24.950Z,4.27
2023-10-31T07:09:28.194Z,4.17
2023-10-31T07:10:31.159Z,4.35
2023-10-31T07:11:35.308Z,4.32
2023-10-31T07:12:37.943Z,4.05
2023-10-31T07:13:40.529Z,3.95
2023-10-31T07:14:43.113Z,4.08
2023-10-31T07:15:45.862Z,3.93
2023-10-31T07:16:50.016Z,3.75
2023-10-31T07:17:52.727Z,3.83
2023-10-31T07:18:55.366Z,3.83
2023-10-31T07:19:57.999Z,4.03
2023-10-31T07:21:00.642Z,3.90
2023-10-31T07:22:03.754Z,3.67
2023-10-31T07:23:06.357Z,3.92
2023-10-31T07:24:10.185Z,3.57
2023-10-31T07:25:12.938Z,3.95
2023-10-31T07:26:15.598Z,3.57
2023-10-31T07:27:18.757Z,3.38
2023-10-31T07:28:21.357Z,3.45
2023-10-31T07:29:23.983Z,3.37
2023-10-31T07:30:26.571Z,3.43
2023-10-31T07:31:29.200Z,3.50
2023-10-31T07:32:31.894Z,3.28
2023-10-31T07:33:34.642Z,3.35
2023-10-31T07:34:37.406Z,3.22
2023-10-31T07:35:40.046Z,3.12
2023-10-31T07:36:42.643Z,3.43
2023-10-31T07:37:45.244Z,3.40
2023-10-31T07:38:47.831Z,3.32
2023-10-31T07:39:51.992Z,2.88
2023-10-31T07:40:54.628Z,3.23
2023-10-31T07:41:57.248Z,3.25
2023-10-31T07:43:00.270Z,3.28
2023-10-31T07:44:02.940Z,3.45
2023-10-31T07:45:06.033Z,2.90
2023-10-31T07:46:08.693Z,3.10
2023-10-31T07:47:11.392Z,3.43
2023-10-31T07:48:14.058Z,3.00
2023-10-31T07:49:16.676Z,3.08
2023-10-31T07:50:19.307Z,3.30
2023-10-31T07:51:22.004Z,3.45
2023-10-31T07:52:24.632Z,3.25
2023-10-31T07:53:27.270Z,3.03
2023-10-31T07:54:29.856Z,3.05
2023-10-31T07:55:32.515Z,2.93
2023-10-31T07:56:35.924Z,3.37
2023-10-31T07:57:38.551Z,3.12
2023-10-31T07:58:41.202Z,3.45
2023-10-31T07:59:43.846Z,3.35
2023-10-31T08:00:46.443Z,3.43
2023-10-31T08:01:51.974Z,3.23
2023-10-31T08:02:57.214Z,3.33
2023-10-31T08:04:00.705Z,3.32
2023-10-31T08:05:03.641Z,3.38
2023-10-31T08:06:08.269Z,3.17
2023-10-31T08:07:10.904Z,3.22
2023-10-31T08:08:13.591Z,3.42
2023-10-31T08:09:17.437Z,3.00
2023-10-31T08:10:20.130Z,3.08
2023-10-31T08:11:22.844Z,2.93
2023-10-31T08:12:25.658Z,2.73
2023-10-31T08:13:28.282Z,3.05
2023-10-31T08:14:31.041Z,3.07
2023-10-31T08:15:33.666Z,3.13
2023-10-31T08:16:36.386Z,3.00
2023-10-31T08:17:39.291Z,3.05
2023-10-31T08:18:41.919Z,2.87
2023-10-31T08:19:44.892Z,3.12
2023-10-31T08:20:50.257Z,2.90
2023-10-31T08:21:52.840Z,3.03
2023-10-31T08:22:55.456Z,2.58
2023-10-31T08:23:58.045Z,2.88
2023-10-31T08:25:00.655Z,3.12
2023-10-31T08:26:03.342Z,3.08
2023-10-31T08:27:06.868Z,2.98
2023-10-31T08:28:09.495Z,2.90
2023-10-31T08:29:12.152Z,2.85
2023-10-31T08:30:15.578Z,3.00
2023-10-31T08:31:18.201Z,3.15
2023-10-31T08:32:20.929Z,3.22
2023-10-31T08:33:23.580Z,2.93
2023-10-31T08:34:26.265Z,2.73
2023-10-31T08:35:29.187Z,2.45
2023-10-31T08:36:31.817Z,2.85
2023-10-31T08:37:34.434Z,2.67
2023-10-31T08:38:37.145Z,2.73
2023-10-31T08:39:39.788Z,2.63
2023-10-31T08:40:43.054Z,2.63
2023-10-31T08:41:56.024Z,2.72
2023-10-31T08:43:00.703Z,2.95
2023-10-31T08:44:04.883Z,2.87
2023-10-31T08:45:07.899Z,2.68
2023-10-31T08:46:10.566Z,2.83
2023-10-31T08:47:13.545Z,3.00
2023-10-31T08:48:17.096Z,2.73
2023-10-31T08:49:19.695Z,2.72
2023-10-31T08:50:22.327Z,2.72
2023-10-31T08:51:25.061Z,2.43
2023-10-31T08:52:27.627Z,2.78
2023-10-31T08:53:30.220Z,2.38
2023-10-31T08:54:32.875Z,2.35
2023-10-31T08:55:35.627Z,2.62
2023-10-31T08:56:38.264Z,2.55
2023-10-31T08:57:40.891Z,2.47
2023-10-31T08:58:43.480Z,2.33
2023-10-31T08:59:46.126Z,2.33
2023-10-31T09:00:48.715Z,2.60
2023-10-31T09:01:51.424Z,2.40
2023-10-31T09:02:54.083Z,2.60
2023-10-31T09:03:56.825Z,2.15
2023-10-31T09:04:59.479Z,2.30
2023-10-31T09:06:02.094Z,2.53
2023-10-31T09:07:04.834Z,2.45
2023-10-31T09:08:07.932Z,2.48
2023-10-31T09:09:11.610Z,2.23
2023-10-31T09:10:14.423Z,2.43
2023-10-31T09:11:17.120Z,2.50
2023-10-31T09:12:19.882Z,2.42
2023-10-31T09:13:22.471Z,2.55
2023-10-31T09:14:25.504Z,2.25
2023-10-31T09:15:28.169Z,2.43
2023-10-31T09:16:30.744Z,2.65
2023-10-31T09:17:33.442Z,2.37
2023-10-31T09:18:36.091Z,2.57
2023-10-31T09:19:38.722Z,2.52
2023-10-31T09:20:41.299Z,2.72
2023-10-31T09:21:43.907Z,2.82
2023-10-31T09:22:46.576Z,2.98
2023-10-31T09:23:49.201Z,3.03
2023-10-31T09:24:51.796Z,2.75
2023-10-31T09:25:56.040Z,2.92
2023-10-31T09:26:58.687Z,3.00
2023-10-31T09:28:02.090Z,2.73
2023-10-31T09:29:04.903Z,2.83
2023-10-31T09:30:08.064Z,2.43
2023-10-31T09:31:10.713Z,2.73
2023-10-31T09:32:13.365Z,2.43
2023-10-31T09:33:16.052Z,2.20
2023-10-31T09:34:19.283Z,2.47
2023-10-31T09:35:21.952Z,2.53
2023-10-31T09:36:24.616Z,2.87
2023-10-31T09:37:27.189Z,2.85
2023-10-31T09:38:30.302Z,2.70
2023-10-31T09:39:32.919Z,2.43
2023-10-31T09:40:39.930Z,2.28
2023-10-31T09:41:42.759Z,2.57
2023-10-31T09:42:46.317Z,2.67
2023-10-31T09:43:48.936Z,2.35
2023-10-31T09:44:51.624Z,2.57
2023-10-31T09:45:54.286Z,2.33
2023-10-31T09:46:58.353Z,2.22
2023-10-31T09:48:02.553Z,2.57
2023-10-31T09:49:06.141Z,2.48
2023-10-31T09:50:10.800Z,2.48
2023-10-31T09:51:13.608Z,2.58
2023-10-31T09:52:16.306Z,2.50
2023-10-31T09:53:18.966Z,2.45
2023-10-31T09:54:21.692Z,2.65
2023-10-31T09:55:25.581Z,2.30
2023-10-31T09:56:35.399Z,2.40
2023-10-31T09:57:37.987Z,2.43
2023-10-31T09:58:42.530Z,2.53
2023-10-31T09:59:45.512Z,2.22
2023-10-31T10:00:48.095Z,2.45
2023-10-31T10:01:50.772Z,2.17
2023-10-31T10:02:55.907Z,2.22
2023-10-31T10:03:58.994Z,2.63
2023-10-31T10:05:01.792Z,2.42
2023-10-31T10:06:05.329Z,2.37
2023-10-31T10:07:08.919Z,2.23
2023-10-31T10:08:11.861Z,2.02
2023-10-31T10:09:15.058Z,2.12
2023-10-31T10:10:17.798Z,2.18
2023-10-31T10:11:20.908Z,2.78
2023-10-31T10:12:23.719Z,9.08
2023-10-31T10:13:26.362Z,8.42
2023-10-31T10:14:29.964Z,4.65
2023-10-31T10:15:45.234Z,2.72
2023-10-31T10:16:47.858Z,2.13
2023-10-31T10:17:54.628Z,2.27
2023-10-31T10:18:57.415Z,2.00
2023-10-31T10:20:10.831Z,2.10
2023-10-31T10:21:13.617Z,2.02
2023-10-31T10:22:16.828Z,2.27
2023-10-31T10:23:19.774Z,2.27
2023-10-31T10:24:23.547Z,2.43
2023-10-31T10:25:29.692Z,2.12
2023-10-31T10:26:34.167Z,2.30
2023-10-31T10:27:37.395Z,2.25
2023-10-31T10:28:39.979Z,2.07
2023-10-31T10:29:42.835Z,2.33
2023-10-31T10:30:49.354Z,2.12
2023-10-31T10:31:52.041Z,2.05
2023-10-31T10:32:54.663Z,2.08
2023-10-31T10:33:57.230Z,2.08
2023-10-31T10:34:59.908Z,2.12
2023-10-31T10:36:03.867Z,1.73
2023-10-31T10:37:08.095Z,2.02
2023-10-31T10:38:15.859Z,1.92
2023-10-31T10:39:23.507Z,2.17
2023-10-31T10:40:27.810Z,2.20
2023-10-31T10:41:30.894Z,1.93
2023-10-31T10:42:36.082Z,2.15
2023-10-31T10:43:40.056Z,2.08
2023-10-31T10:44:45.197Z,2.08
2023-10-31T10:45:59.181Z,1.90
2023-10-31T10:47:05.217Z,2.03
2023-10-31T10:48:13.378Z,2.10
2023-10-31T10:49:16.906Z,2.03
2023-10-31T10:50:22.258Z,2.00
2023-10-31T10:51:47.529Z,2.42
2023-10-31T10:53:02.338Z,1.85
2023-10-31T10:54:31.912Z,2.15
2023-10-31T10:55:40.733Z,1.57
2023-10-31T10:56:48.183Z,1.70
2023-10-31T10:58:06.415Z,1.72
2023-10-31T10:59:21.402Z,2.07
2023-10-31T11:00:26.423Z,2.12
2023-10-31T11:01:29.725Z,2.03
2023-10-31T11:02:33.780Z,2.22
2023-10-31T11:03:36.985Z,2.33
2023-10-31T11:04:40.756Z,1.98
2023-10-31T11:05:43.810Z,2.22
2023-10-31T11:06:47.172Z,2.23
2023-10-31T11:07:50.055Z,2.30
2023-10-31T11:08:53.533Z,2.20
2023-10-31T11:09:57.133Z,1.77
2023-10-31T11:10:59.974Z,2.10
2023-10-31T11:12:04.110Z,2.02
2023-10-31T11:13:06.723Z,2.22
2023-10-31T11:14:11.255Z,2.05
2023-10-31T11:15:17.469Z,2.03
2023-10-31T11:16:31.218Z,2.03
2023-10-31T11:17:37.389Z,2.18
2023-10-31T11:18:40.633Z,2.15
2023-10-31T11:19:43.510Z,2.05
2023-10-31T11:20:46.492Z,2.30
2023-10-31T11:22:15.243Z,1.93
2023-10-31T11:23:18.141Z,1.78
2023-10-31T11:24:24.201Z,1.93
2023-10-31T11:25:32.196Z,2.33
2023-10-31T11:26:35.970Z,2.03
2023-10-31T11:27:39.688Z,2.08
2023-10-31T11:28:43.190Z,1.92
2023-10-31T11:29:46.039Z,2.02
2023-10-31T11:30:53.466Z,2.10
2023-10-31T11:31:57.596Z,1.88
2023-10-31T11:33:00.681Z,1.95
2023-10-31T11:34:06.281Z,2.35
2023-10-31T11:35:09.450Z,2.22
2023-10-31T11:36:12.186Z,2.12
2023-10-31T11:37:27.937Z,1.93
2023-10-31T11:38:35.718Z,1.92
2023-10-31T11:39:38.300Z,1.77
2023-10-31T11:41:02.678Z,1.95
2023-10-31T11:42:19.260Z,1.87
2023-10-31T11:43:22.054Z,2.10
2023-10-31T11:44:27.720Z,1.78
2023-10-31T11:45:39.287Z,2.27
2023-10-31T11:46:41.926Z,1.73
2023-10-31T11:47:51.632Z,2.05
2023-10-31T11:48:58.978Z,2.28
2023-10-31T11:50:01.654Z,2.40
2023-10-31T11:51:04.756Z,2.47
2023-10-31T11:52:17.487Z,2.32
2023-10-31T11:53:23.274Z,2.13
2023-10-31T11:54:26.258Z,2.10
2023-10-31T11:55:28.960Z,1.80
2023-10-31T11:56:31.689Z,1.95
2023-10-31T11:57:34.283Z,1.93
2023-10-31T11:58:37.087Z,2.13
2023-10-31T11:59:41.139Z,2.05
2023-10-31T12:00:44.057Z,2.10
2023-10-31T12:01:50.257Z,2.05
2023-10-31T12:03:03.152Z,2.08
2023-10-31T12:04:08.920Z,2.22
2023-10-31T12:05:13.871Z,2.00
2023-10-31T12:06:17.277Z,2.23
2023-10-31T12:07:20.562Z,1.92
2023-10-31T12:08:43.165Z,1.68
2023-10-31T12:09:49.442Z,2.13
2023-10-31T12:10:52.057Z,2.23
2023-10-31T12:11:54.649Z,2.07
2023-10-31T12:12:58.077Z,2.13
2023-10-31T12:14:03.048Z,2.07
2023-10-31T12:15:09.468Z,1.95
2023-10-31T12:16:14.012Z,1.85
2023-10-31T12:17:16.848Z,2.20
2023-10-31T12:18:19.640Z,2.23
2023-10-31T12:19:22.357Z,1.87
2023-10-31T12:20:26.213Z,2.23
2023-10-31T12:21:44.616Z,2.18
2023-10-31T12:22:47.321Z,2.15
2023-10-31T12:23:51.428Z,2.22
2023-10-31T12:25:01.842Z,2.28
2023-10-31T12:26:04.985Z,1.95
2023-10-31T12:27:07.669Z,2.08
2023-10-31T12:28:10.273Z,2.30
2023-10-31T12:29:16.383Z,1.88
2023-10-31T12:30:21.002Z,1.75
2023-10-31T12:31:23.692Z,2.48
2023-10-31T12:32:26.333Z,2.30
2023-10-31T12:33:29.545Z,2.07
2023-10-31T12:34:35.788Z,1.98
2023-10-31T12:35:38.692Z,1.98
2023-10-31T12:36:41.935Z,1.88
2023-10-31T12:37:46.730Z,1.97
2023-10-31T12:38:49.717Z,1.87
2023-10-31T12:39:52.476Z,2.10
2023-10-31T12:40:56.945Z,2.08
2023-10-31T12:42:00.343Z,1.72
2023-10-31T12:43:04.531Z,2.27
2023-10-31T12:44:11.140Z,2.55
2023-10-31T12:45:13.875Z,2.25
2023-10-31T12:46:30.514Z,2.60
2023-10-31T12:47:35.821Z,3.23
2023-10-31T12:48:39.252Z,3.23
2023-10-31T12:49:41.900Z,3.50
2023-10-31T12:50:45.264Z,3.22
2023-10-31T12:52:16.682Z,3.70
2023-10-31T12:53:25.299Z,3.45
2023-10-31T12:54:35.943Z,3.32
2023-10-31T12:55:41.547Z,3.45
2023-10-31T12:56:44.272Z,3.65
2023-10-31T12:57:47.661Z,3.62
2023-10-31T12:58:50.325Z,3.60
2023-10-31T12:59:57.104Z,3.37
2023-10-31T13:01:00.462Z,3.38
2023-10-31T13:02:04.480Z,3.63
2023-10-31T13:03:13.160Z,3.22
2023-10-31T13:04:28.575Z,3.07
2023-10-31T13:05:31.755Z,3.45
2023-10-31T13:06:34.618Z,3.60
2023-10-31T13:07:37.666Z,3.32
2023-10-31T13:08:40.248Z,3.57
2023-10-31T13:09:43.931Z,3.52
2023-10-31T13:10:46.746Z,3.58
2023-10-31T13:11:49.457Z,3.98
2023-10-31T13:12:53.410Z,3.88
2023-10-31T13:13:57.324Z,4.12
2023-10-31T13:14:59.958Z,4.22
2023-10-31T13:16:02.603Z,3.83
2023-10-31T13:17:05.752Z,4.38
2023-10-31T13:18:11.494Z,4.28
2023-10-31T13:19:14.114Z,4.18
2023-10-31T13:20:19.020Z,4.22
2023-10-31T13:21:21.920Z,3.88
2023-10-31T13:22:24.584Z,4.18
2023-10-31T13:23:27.210Z,4.62
2023-10-31T13:24:29.850Z,4.98
2023-10-31T13:25:32.873Z,5.43
2023-10-31T13:26:36.541Z,4.83
2023-10-31T13:27:41.784Z,4.88
2023-10-31T13:28:44.389Z,4.25
2023-10-31T13:29:49.488Z,4.52
2023-10-31T13:30:52.086Z,4.27
2023-10-31T13:31:54.744Z,4.23
2023-10-31T13:32:58.702Z,4.45
2023-10-31T13:34:01.319Z,4.32
2023-10-31T13:35:04.552Z,4.63
2023-10-31T13:36:07.641Z,4.12
2023-10-31T13:37:10.305Z,4.12
2023-10-31T13:38:13.005Z,4.50
2023-10-31T13:39:15.706Z,4.52
2023-10-31T13:40:18.371Z,4.28
2023-10-31T13:41:21.480Z,4.63
2023-10-31T13:42:24.323Z,5.12
2023-10-31T13:43:26.986Z,4.12
2023-10-31T13:44:29.633Z,4.40
2023-10-31T13:45:32.228Z,5.02
2023-10-31T13:46:34.839Z,4.85
2023-10-31T13:47:39.565Z,4.33
2023-10-31T13:48:43.015Z,4.98
2023-10-31T13:49:46.106Z,4.70
2023-10-31T13:50:49.011Z,4.92
2023-10-31T13:51:51.690Z,4.88
2023-10-31T13:52:54.263Z,4.58
2023-10-31T13:53:57.989Z,4.77
2023-10-31T13:55:00.611Z,4.57
2023-10-31T13:56:03.243Z,4.63
2023-10-31T13:57:05.847Z,4.37
2023-10-31T13:58:08.707Z,4.72
2023-10-31T13:59:11.380Z,4.65
2023-10-31T14:00:14.259Z,4.58
2023-10-31T14:01:16.982Z,4.05
2023-10-31T14:02:19.872Z,4.52
2023-10-31T14:03:23.681Z,4.30